sensor_id;sensor_type;location;lat;lon;timestamp;P1;durP1;ratioP1;P2;durP2;ratioP2
5054;SDS011;13829;48.990;8.346;2023-09-08T00:00:42;9.55;;;7.57;;
5054;SDS011;13829;48.990;8.346;2023-09-08T00:03:09;7.95;;;7.25;;
5054;SDS011;13829;48.990;8.346;2023-09-08T00:05:36;9.25;;;7.28;;
5054;SDS011;13829;48.990;8.346;2023-09-08T00:08:03;7.60;;;6.70;;
5054;SDS011;13829;48.990;8.346;2023-09-08T00:10:32;11.32;;;6.80;;
5054;SDS011;13829;48.990;8.346;2023-09-08T00:12:59;8.30;;;7.45;;
5054;SDS011;13829;48.990;8.346;2023-09-08T00:15:26;11.57;;;7.13;;
5054;SDS011;13829;48.990;8.346;2023-09-08T00:17:52;8.98;;;7.88;;
5054;SDS011;13829;48.990;8.346;2023-09-08T00:20:22;8.93;;;8.02;;
5054;SDS011;13829;48.990;8.346;2023-09-08T00:22:49;8.65;;;7.85;;
5054;SDS011;13829;48.990;8.346;2023-09-08T00:25:16;8.90;;;7.57;;
5054;SDS011;13829;48.990;8.346;2023-09-08T00:27:44;9.20;;;8.23;;
5054;SDS011;13829;48.990;8.346;2023-09-08T00:30:11;9.13;;;8.23;;
5054;SDS011;13829;48.990;8.346;2023-09-08T00:32:39;9.93;;;7.68;;
5054;SDS011;13829;48.990;8.346;2023-09-08T00:35:06;10.70;;;8.65;;
5054;SDS011;13829;48.990;8.346;2023-09-08T00:37:34;9.18;;;7.93;;
5054;SDS011;13829;48.990;8.346;2023-09-08T00:40:01;11.07;;;8.13;;
5054;SDS011;13829;48.990;8.346;2023-09-08T00:42:28;9.55;;;8.07;;
5054;SDS011;13829;48.990;8.346;2023-09-08T00:44:56;8.82;;;7.43;;
5054;SDS011;13829;48.990;8.346;2023-09-08T00:47:23;10.40;;;8.25;;
5054;SDS011;13829;48.990;8.346;2023-09-08T00:49:50;10.43;;;8.25;;
5054;SDS011;13829;48.990;8.346;2023-09-08T00:52:17;8.90;;;8.00;;
5054;SDS011;13829;48.990;8.346;2023-09-08T00:54:44;9.02;;;7.95;;
5054;SDS011;13829;48.990;8.346;2023-09-08T00:57:11;11.15;;;8.48;;
5054;SDS011;13829;48.990;8.346;2023-09-08T00:59:39;9.55;;;8.65;;
5054;SDS011;13829;48.990;8.346;2023-09-08T01:02:07;11.27;;;7.95;;
5054;SDS011;13829;48.990;8.346;2023-09-08T01:04:34;10.57;;;9.03;;
5054;SDS011;13829;48.990;8.346;2023-09-08T01:07:05;10.52;;;8.10;;
5054;SDS011;13829;48.990;8.346;2023-09-08T01:09:32;9.20;;;8.30;;
5054;SDS011;13829;48.990;8.346;2023-09-08T01:12:02;8.65;;;7.75;;
5054;SDS011;13829;48.990;8.346;2023-09-08T01:14:31;8.90;;;8.00;;
5054;SDS011;13829;48.990;8.346;2023-09-08T01:16:58;9.73;;;7.60;;
5054;SDS011;13829;48.990;8.346;2023-09-08T01:19:26;8.77;;;6.90;;
5054;SDS011;13829;48.990;8.346;2023-09-08T01:21:58;9.77;;;7.73;;
5054;SDS011;13829;48.990;8.346;2023-09-08T01:25:01;8.53;;;7.67;;
5054;SDS011;13829;48.990;8.346;2023-09-08T01:27:39;12.93;;;8.40;;
5054;SDS011;13829;48.990;8.346;2023-09-08T01:30:13;8.50;;;7.70;;
5054;SDS011;13829;48.990;8.346;2023-09-08T01:32:41;12.13;;;8.17;;
5054;SDS011;13829;48.990;8.346;2023-09-08T01:35:10;9.33;;;7.93;;
5054;SDS011;13829;48.990;8.346;2023-09-08T01:37:41;10.50;;;8.37;;
5054;SDS011;13829;48.990;8.346;2023-09-08T01:40:12;12.17;;;8.13;;
5054;SDS011;13829;48.990;8.346;2023-09-08T01:42:40;10.60;;;8.50;;
5054;SDS011;13829;48.990;8.346;2023-09-08T01:45:08;9.70;;;8.17;;
5054;SDS011;13829;48.990;8.346;2023-09-08T01:47:36;9.47;;;8.47;;
5054;SDS011;13829;48.990;8.346;2023-09-08T01:50:03;9.53;;;8.33;;
5054;SDS011;13829;48.990;8.346;2023-09-08T01:52:31;9.97;;;8.23;;
5054;SDS011;13829;48.990;8.346;2023-09-08T01:54:58;9.77;;;8.77;;
5054;SDS011;13829;48.990;8.346;2023-09-08T01:57:27;8.90;;;8.00;;
5054;SDS011;13829;48.990;8.346;2023-09-08T01:59:54;11.60;;;8.70;;
5054;SDS011;13829;48.990;8.346;2023-09-08T02:02:20;11.30;;;8.70;;
5054;SDS011;13829;48.990;8.346;2023-09-08T02:04:47;11.27;;;9.00;;
5054;SDS011;13829;48.990;8.346;2023-09-08T02:07:14;9.30;;;8.33;;
5054;SDS011;13829;48.990;8.346;2023-09-08T02:09:41;10.20;;;8.47;;
5054;SDS011;13829;48.990;8.346;2023-09-08T02:12:08;11.60;;;8.33;;
5054;SDS011;13829;48.990;8.346;2023-09-08T02:14:36;9.60;;;8.33;;
5054;SDS011;13829;48.990;8.346;2023-09-08T02:17:03;10.13;;;7.93;;
5054;SDS011;13829;48.990;8.346;2023-09-08T02:19:31;9.50;;;8.13;;
5054;SDS011;13829;48.990;8.346;2023-09-08T02:21:58;9.97;;;8.67;;
5054;SDS011;13829;48.990;8.346;2023-09-08T02:24:25;9.97;;;8.50;;
5054;SDS011;13829;48.990;8.346;2023-09-08T02:26:52;10.93;;;8.17;;
5054;SDS011;13829;48.990;8.346;2023-09-08T02:29:19;9.60;;;7.80;;
5054;SDS011;13829;48.990;8.346;2023-09-08T02:31:48;8.63;;;7.40;;
5054;SDS011;13829;48.990;8.346;2023-09-08T02:34:15;9.17;;;8.27;;
5054;SDS011;13829;48.990;8.346;2023-09-08T02:36:42;8.20;;;7.40;;
5054;SDS011;13829;48.990;8.346;2023-09-08T02:39:11;8.57;;;7.67;;
5054;SDS011;13829;48.990;8.346;2023-09-08T02:41:38;9.60;;;7.83;;
5054;SDS011;13829;48.990;8.346;2023-09-08T02:44:05;9.53;;;8.37;;
5054;SDS011;13829;48.990;8.346;2023-09-08T02:46:32;9.57;;;8.20;;
5054;SDS011;13829;48.990;8.346;2023-09-08T02:49:00;10.37;;;8.37;;
5054;SDS011;13829;48.990;8.346;2023-09-08T02:51:27;9.23;;;8.27;;
5054;SDS011;13829;48.990;8.346;2023-09-08T02:53:54;10.27;;;8.27;;
5054;SDS011;13829;48.990;8.346;2023-09-08T02:56:21;10.47;;;7.60;;
5054;SDS011;13829;48.990;8.346;2023-09-08T02:58:48;8.93;;;8.10;;
5054;SDS011;13829;48.990;8.346;2023-09-08T03:01:16;10.43;;;8.40;;
5054;SDS011;13829;48.990;8.346;2023-09-08T03:03:45;10.07;;;8.57;;
5054;SDS011;13829;48.990;8.346;2023-09-08T03:06:14;9.10;;;8.27;;
5054;SDS011;13829;48.990;8.346;2023-09-08T03:08:44;9.10;;;8.20;;
5054;SDS011;13829;48.990;8.346;2023-09-08T03:11:11;11.07;;;8.67;;
5054;SDS011;13829;48.990;8.346;2023-09-08T03:13:39;8.70;;;7.87;;
5054;SDS011;13829;48.990;8.346;2023-09-08T03:18:41;9.37;;;8.00;;
5054;SDS011;13829;48.990;8.346;2023-09-08T03:21:08;9.03;;;8.13;;
5054;SDS011;13829;48.990;8.346;2023-09-08T03:23:37;9.87;;;8.00;;
5054;SDS011;13829;48.990;8.346;2023-09-08T03:26:05;10.10;;;8.10;;
5054;SDS011;13829;48.990;8.346;2023-09-08T03:28:33;10.80;;;9.07;;
5054;SDS011;13829;48.990;8.346;2023-09-08T03:31:02;9.00;;;8.10;;
5054;SDS011;13829;48.990;8.346;2023-09-08T03:33:29;10.50;;;8.80;;
5054;SDS011;13829;48.990;8.346;2023-09-08T03:35:56;10.17;;;8.27;;
5054;SDS011;13829;48.990;8.346;2023-09-08T03:38:23;8.57;;;7.77;;
5054;SDS011;13829;48.990;8.346;2023-09-08T03:40:52;10.20;;;8.80;;
5054;SDS011;13829;48.990;8.346;2023-09-08T03:43:19;8.60;;;7.70;;
5054;SDS011;13829;48.990;8.346;2023-09-08T03:45:46;10.73;;;8.83;;
5054;SDS011;13829;48.990;8.346;2023-09-08T03:48:13;11.53;;;8.87;;
5054;SDS011;13829;48.990;8.346;2023-09-08T03:50:40;9.40;;;8.40;;
5054;SDS011;13829;48.990;8.346;2023-09-08T03:53:10;9.40;;;8.40;;
5054;SDS011;13829;48.990;8.346;2023-09-08T03:55:37;10.10;;;7.83;;
5054;SDS011;13829;48.990;8.346;2023-09-08T03:58:06;11.87;;;8.90;;
5054;SDS011;13829;48.990;8.346;2023-09-08T04:00:32;11.23;;;8.50;;
5054;SDS011;13829;48.990;8.346;2023-09-08T04:03:00;8.40;;;7.53;;
5054;SDS011;13829;48.990;8.346;2023-09-08T04:05:27;9.37;;;8.00;;
5054;SDS011;13829;48.990;8.346;2023-09-08T04:07:54;10.33;;;7.80;;
5054;SDS011;13829;48.990;8.346;2023-09-08T04:10:21;8.10;;;7.30;;
5054;SDS011;13829;48.990;8.346;2023-09-08T04:12:48;9.90;;;8.10;;
5054;SDS011;13829;48.990;8.346;2023-09-08T04:15:16;11.97;;;8.00;;
5054;SDS011;13829;48.990;8.346;2023-09-08T04:17:43;14.03;;;8.47;;
5054;SDS011;13829;48.990;8.346;2023-09-08T04:20:11;9.27;;;8.30;;
5054;SDS011;13829;48.990;8.346;2023-09-08T04:22:40;11.70;;;7.53;;
5054;SDS011;13829;48.990;8.346;2023-09-08T04:25:07;10.40;;;7.90;;
5054;SDS011;13829;48.990;8.346;2023-09-08T04:27:36;9.37;;;8.40;;
5054;SDS011;13829;48.990;8.346;2023-09-08T04:30:03;9.77;;;8.27;;
5054;SDS011;13829;48.990;8.346;2023-09-08T04:32:32;12.27;;;7.90;;
5054;SDS011;13829;48.990;8.346;2023-09-08T04:34:59;9.47;;;8.40;;
5054;SDS011;13829;48.990;8.346;2023-09-08T04:37:26;9.50;;;8.50;;
5054;SDS011;13829;48.990;8.346;2023-09-08T04:39:55;8.07;;;7.27;;
5054;SDS011;13829;48.990;8.346;2023-09-08T04:42:22;8.60;;;7.70;;
5054;SDS011;13829;48.990;8.346;2023-09-08T04:44:49;11.73;;;8.10;;
5054;SDS011;13829;48.990;8.346;2023-09-08T04:47:16;9.40;;;8.40;;
5054;SDS011;13829;48.990;8.346;2023-09-08T04:49:44;14.00;;;8.33;;
5054;SDS011;13829;48.990;8.346;2023-09-08T04:52:11;11.33;;;8.03;;
5054;SDS011;13829;48.990;8.346;2023-09-08T04:54:39;9.50;;;7.60;;
5054;SDS011;13829;48.990;8.346;2023-09-08T04:57:06;8.70;;;7.80;;
5054;SDS011;13829;48.990;8.346;2023-09-08T04:59:33;8.97;;;7.83;;
5054;SDS011;13829;48.990;8.346;2023-09-08T05:02:01;8.43;;;7.53;;
5054;SDS011;13829;48.990;8.346;2023-09-08T05:04:29;10.43;;;8.17;;
5054;SDS011;13829;48.990;8.346;2023-09-08T05:06:57;9.80;;;7.40;;
5054;SDS011;13829;48.990;8.346;2023-09-08T05:09:24;8.00;;;7.20;;
5054;SDS011;13829;48.990;8.346;2023-09-08T05:11:51;10.93;;;8.03;;
5054;SDS011;13829;48.990;8.346;2023-09-08T05:14:18;10.13;;;7.53;;
5054;SDS011;13829;48.990;8.346;2023-09-08T05:16:45;9.40;;;7.93;;
5054;SDS011;13829;48.990;8.346;2023-09-08T05:19:14;8.77;;;7.80;;
5054;SDS011;13829;48.990;8.346;2023-09-08T05:21:42;8.23;;;7.37;;
5054;SDS011;13829;48.990;8.346;2023-09-08T05:24:10;10.60;;;8.10;;
5054;SDS011;13829;48.990;8.346;2023-09-08T05:26:37;8.13;;;7.30;;
5054;SDS011;13829;48.990;8.346;2023-09-08T05:29:07;11.13;;;8.20;;
5054;SDS011;13829;48.990;8.346;2023-09-08T05:31:34;12.03;;;8.17;;
5054;SDS011;13829;48.990;8.346;2023-09-08T05:34:01;10.67;;;8.80;;
5054;SDS011;13829;48.990;8.346;2023-09-08T05:36:29;9.80;;;7.73;;
5054;SDS011;13829;48.990;8.346;2023-09-08T05:38:58;10.50;;;8.87;;
5054;SDS011;13829;48.990;8.346;2023-09-08T05:41:26;9.77;;;8.50;;
5054;SDS011;13829;48.990;8.346;2023-09-08T05:43:53;11.00;;;8.53;;
5054;SDS011;13829;48.990;8.346;2023-09-08T05:46:20;12.57;;;8.20;;
5054;SDS011;13829;48.990;8.346;2023-09-08T05:48:47;9.97;;;8.73;;
5054;SDS011;13829;48.990;8.346;2023-09-08T05:51:14;9.97;;;8.90;;
5054;SDS011;13829;48.990;8.346;2023-09-08T05:53:41;10.03;;;8.00;;
5054;SDS011;13829;48.990;8.346;2023-09-08T05:56:08;10.27;;;8.70;;
5054;SDS011;13829;48.990;8.346;2023-09-08T05:58:37;9.33;;;8.33;;
5054;SDS011;13829;48.990;8.346;2023-09-08T06:01:04;10.07;;;9.07;;
5054;SDS011;13829;48.990;8.346;2023-09-08T06:03:32;9.03;;;8.13;;
5054;SDS011;13829;48.990;8.346;2023-09-08T06:05:59;13.57;;;9.23;;
5054;SDS011;13829;48.990;8.346;2023-09-08T06:08:26;10.20;;;9.00;;
5054;SDS011;13829;48.990;8.346;2023-09-08T06:10:53;9.00;;;8.10;;
5054;SDS011;13829;48.990;8.346;2023-09-08T06:13:20;11.17;;;8.70;;
5054;SDS011;13829;48.990;8.346;2023-09-08T06:15:48;12.67;;;9.00;;
5054;SDS011;13829;48.990;8.346;2023-09-08T06:18:15;10.93;;;8.73;;
5054;SDS011;13829;48.990;8.346;2023-09-08T06:20:45;12.60;;;9.17;;
5054;SDS011;13829;48.990;8.346;2023-09-08T06:23:13;11.83;;;9.80;;
5054;SDS011;13829;48.990;8.346;2023-09-08T06:25:41;9.47;;;8.57;;
5054;SDS011;13829;48.990;8.346;2023-09-08T06:28:07;8.97;;;8.07;;
5054;SDS011;13829;48.990;8.346;2023-09-08T06:30:34;14.00;;;10.83;;
5054;SDS011;13829;48.990;8.346;2023-09-08T06:33:03;10.70;;;9.60;;
5054;SDS011;13829;48.990;8.346;2023-09-08T06:35:30;11.15;;;9.93;;
5054;SDS011;13829;48.990;8.346;2023-09-08T06:37:58;11.07;;;9.88;;
5054;SDS011;13829;48.990;8.346;2023-09-08T06:40:25;10.95;;;8.82;;
5054;SDS011;13829;48.990;8.346;2023-09-08T06:42:55;11.10;;;10.00;;
5054;SDS011;13829;48.990;8.346;2023-09-08T06:45:22;12.98;;;9.45;;
5054;SDS011;13829;48.990;8.346;2023-09-08T06:47:49;11.73;;;9.70;;
5054;SDS011;13829;48.990;8.346;2023-09-08T06:50:21;13.77;;;9.63;;
5054;SDS011;13829;48.990;8.346;2023-09-08T06:52:48;11.25;;;8.57;;
5054;SDS011;13829;48.990;8.346;2023-09-08T06:55:15;9.73;;;8.70;;
5054;SDS011;13829;48.990;8.346;2023-09-08T06:57:42;13.00;;;8.88;;
5054;SDS011;13829;48.990;8.346;2023-09-08T07:00:10;10.73;;;8.20;;
5054;SDS011;13829;48.990;8.346;2023-09-08T07:02:38;11.48;;;8.30;;
5054;SDS011;13829;48.990;8.346;2023-09-08T07:05:05;11.60;;;8.10;;
5054;SDS011;13829;48.990;8.346;2023-09-08T07:07:34;11.05;;;7.72;;
5054;SDS011;13829;48.990;8.346;2023-09-08T07:10:02;13.02;;;7.53;;
5054;SDS011;13829;48.990;8.346;2023-09-08T07:12:30;10.13;;;8.43;;
5054;SDS011;13829;48.990;8.346;2023-09-08T07:14:57;9.93;;;7.95;;
5054;SDS011;13829;48.990;8.346;2023-09-08T07:17:25;12.60;;;7.78;;
5054;SDS011;13829;48.990;8.346;2023-09-08T07:19:52;13.52;;;7.82;;
5054;SDS011;13829;48.990;8.346;2023-09-08T07:22:19;12.85;;;8.20;;
5054;SDS011;13829;48.990;8.346;2023-09-08T07:24:47;15.07;;;8.40;;
5054;SDS011;13829;48.990;8.346;2023-09-08T07:27:14;12.05;;;7.70;;
5054;SDS011;13829;48.990;8.346;2023-09-08T07:29:41;11.35;;;7.65;;
5054;SDS011;13829;48.990;8.346;2023-09-08T07:32:08;11.40;;;9.00;;
5054;SDS011;13829;48.990;8.346;2023-09-08T07:34:35;10.85;;;7.70;;
5054;SDS011;13829;48.990;8.346;2023-09-08T07:37:02;11.52;;;7.47;;
5054;SDS011;13829;48.990;8.346;2023-09-08T07:39:29;16.45;;;8.18;;
5054;SDS011;13829;48.990;8.346;2023-09-08T07:41:59;16.45;;;8.10;;
5054;SDS011;13829;48.990;8.346;2023-09-08T07:44:26;13.30;;;8.23;;
5054;SDS011;13829;48.990;8.346;2023-09-08T07:46:53;12.75;;;8.55;;
5054;SDS011;13829;48.990;8.346;2023-09-08T07:49:21;14.43;;;7.78;;
5054;SDS011;13829;48.990;8.346;2023-09-08T07:51:48;9.95;;;7.93;;
5054;SDS011;13829;48.990;8.346;2023-09-08T07:54:15;11.73;;;7.68;;
5054;SDS011;13829;48.990;8.346;2023-09-08T07:56:42;9.43;;;7.85;;
5054;SDS011;13829;48.990;8.346;2023-09-08T07:59:10;10.23;;;8.15;;
5054;SDS011;13829;48.990;8.346;2023-09-08T08:01:37;10.05;;;7.93;;
5054;SDS011;13829;48.990;8.346;2023-09-08T08:04:04;9.30;;;8.35;;
5054;SDS011;13829;48.990;8.346;2023-09-08T08:06:32;9.48;;;7.82;;
5054;SDS011;13829;48.990;8.346;2023-09-08T08:08:59;9.82;;;8.73;;
5054;SDS011;13829;48.990;8.346;2023-09-08T08:11:26;9.50;;;8.43;;
5054;SDS011;13829;48.990;8.346;2023-09-08T08:13:53;11.25;;;8.65;;
5054;SDS011;13829;48.990;8.346;2023-09-08T08:16:22;9.48;;;8.45;;
5054;SDS011;13829;48.990;8.346;2023-09-08T08:18:50;9.27;;;7.47;;
5054;SDS011;13829;48.990;8.346;2023-09-08T08:21:17;10.20;;;9.27;;
5054;SDS011;13829;48.990;8.346;2023-09-08T08:23:44;10.38;;;9.38;;
5054;SDS011;13829;48.990;8.346;2023-09-08T08:26:11;9.23;;;7.97;;
5054;SDS011;13829;48.990;8.346;2023-09-08T08:28:38;12.38;;;8.63;;
5054;SDS011;13829;48.990;8.346;2023-09-08T08:31:05;12.70;;;10.32;;
5054;SDS011;13829;48.990;8.346;2023-09-08T08:33:33;11.20;;;9.70;;
5054;SDS011;13829;48.990;8.346;2023-09-08T08:36:00;11.13;;;9.98;;
5054;SDS011;13829;48.990;8.346;2023-09-08T08:38:28;11.48;;;10.15;;
5054;SDS011;13829;48.990;8.346;2023-09-08T08:40:57;11.85;;;9.77;;
5054;SDS011;13829;48.990;8.346;2023-09-08T08:43:29;11.23;;;9.93;;
5054;SDS011;13829;48.990;8.346;2023-09-08T08:45:58;10.35;;;9.35;;
5054;SDS011;13829;48.990;8.346;2023-09-08T08:48:26;15.25;;;8.95;;
5054;SDS011;13829;48.990;8.346;2023-09-08T08:50:57;13.52;;;9.23;;
5054;SDS011;13829;48.990;8.346;2023-09-08T08:53:26;13.30;;;9.73;;
5054;SDS011;13829;48.990;8.346;2023-09-08T08:55:55;11.15;;;10.05;;
5054;SDS011;13829;48.990;8.346;2023-09-08T08:58:25;10.02;;;9.02;;
5054;SDS011;13829;48.990;8.346;2023-09-08T09:00:54;9.95;;;9.02;;
5054;SDS011;13829;48.990;8.346;2023-09-08T09:03:24;9.43;;;8.52;;
5054;SDS011;13829;48.990;8.346;2023-09-08T09:05:53;10.43;;;9.25;;
5054;SDS011;13829;48.990;8.346;2023-09-08T09:08:22;11.40;;;8.65;;
5054;SDS011;13829;48.990;8.346;2023-09-08T09:10:50;11.48;;;9.57;;
5054;SDS011;13829;48.990;8.346;2023-09-08T09:13:17;12.00;;;9.45;;
5054;SDS011;13829;48.990;8.346;2023-09-08T09:15:45;11.40;;;9.30;;
5054;SDS011;13829;48.990;8.346;2023-09-08T09:18:12;10.73;;;9.63;;
5054;SDS011;13829;48.990;8.346;2023-09-08T09:20:39;13.20;;;10.90;;
5054;SDS011;13829;48.990;8.346;2023-09-08T09:23:07;10.48;;;9.38;;
5054;SDS011;13829;48.990;8.346;2023-09-08T09:25:38;10.75;;;9.75;;
5054;SDS011;13829;48.990;8.346;2023-09-08T09:28:05;17.52;;;10.40;;
5054;SDS011;13829;48.990;8.346;2023-09-08T09:33:16;11.25;;;10.10;;
5054;SDS011;13829;48.990;8.346;2023-09-08T09:35:44;10.85;;;9.63;;
5054;SDS011;13829;48.990;8.346;2023-09-08T09:38:12;12.68;;;10.15;;
5054;SDS011;13829;48.990;8.346;2023-09-08T09:40:42;11.23;;;10.00;;
5054;SDS011;13829;48.990;8.346;2023-09-08T09:43:08;13.68;;;9.52;;
5054;SDS011;13829;48.990;8.346;2023-09-08T09:45:36;12.30;;;10.70;;
5054;SDS011;13829;48.990;8.346;2023-09-08T09:48:05;10.43;;;9.52;;
5054;SDS011;13829;48.990;8.346;2023-09-08T09:50:36;12.95;;;9.40;;
5054;SDS011;13829;48.990;8.346;2023-09-08T09:53:07;11.30;;;8.63;;
5054;SDS011;13829;48.990;8.346;2023-09-08T09:55:37;11.45;;;9.68;;
5054;SDS011;13829;48.990;8.346;2023-09-08T09:58:07;10.85;;;9.20;;
5054;SDS011;13829;48.990;8.346;2023-09-08T10:00:35;13.40;;;9.57;;
5054;SDS011;13829;48.990;8.346;2023-09-08T10:03:05;10.75;;;9.65;;
5054;SDS011;13829;48.990;8.346;2023-09-08T10:05:33;11.43;;;9.48;;
5054;SDS011;13829;48.990;8.346;2023-09-08T10:08:00;10.75;;;8.93;;
5054;SDS011;13829;48.990;8.346;2023-09-08T10:10:27;10.90;;;8.90;;
5054;SDS011;13829;48.990;8.346;2023-09-08T10:13:01;10.02;;;8.98;;
5054;SDS011;13829;48.990;8.346;2023-09-08T10:15:33;9.05;;;8.25;;
5054;SDS011;13829;48.990;8.346;2023-09-08T10:18:02;11.20;;;9.27;;
5054;SDS011;13829;48.990;8.346;2023-09-08T10:20:31;10.48;;;9.48;;
5054;SDS011;13829;48.990;8.346;2023-09-08T10:23:02;10.18;;;9.05;;
5054;SDS011;13829;48.990;8.346;2023-09-08T10:25:39;8.95;;;8.05;;
5054;SDS011;13829;48.990;8.346;2023-09-08T10:28:19;9.80;;;8.80;;
5054;SDS011;13829;48.990;8.346;2023-09-08T10:30:48;10.57;;;8.88;;
5054;SDS011;13829;48.990;8.346;2023-09-08T10:33:16;12.75;;;9.27;;
5054;SDS011;13829;48.990;8.346;2023-09-08T10:35:45;9.80;;;8.80;;
5054;SDS011;13829;48.990;8.346;2023-09-08T10:38:22;11.57;;;10.18;;
5054;SDS011;13829;48.990;8.346;2023-09-08T10:40:51;9.48;;;8.48;;
5054;SDS011;13829;48.990;8.346;2023-09-08T10:43:20;11.85;;;8.75;;
5054;SDS011;13829;48.990;8.346;2023-09-08T10:45:47;10.57;;;9.40;;
5054;SDS011;13829;48.990;8.346;2023-09-08T10:48:14;10.13;;;9.13;;
5054;SDS011;13829;48.990;8.346;2023-09-08T10:50:41;9.32;;;8.43;;
5054;SDS011;13829;48.990;8.346;2023-09-08T10:53:13;8.90;;;8.10;;
5054;SDS011;13829;48.990;8.346;2023-09-08T10:55:42;10.30;;;8.70;;
5054;SDS011;13829;48.990;8.346;2023-09-08T10:58:21;11.57;;;9.25;;
5054;SDS011;13829;48.990;8.346;2023-09-08T11:00:59;10.77;;;9.07;;
5054;SDS011;13829;48.990;8.346;2023-09-08T11:03:30;8.25;;;7.55;;
5054;SDS011;13829;48.990;8.346;2023-09-08T11:06:14;9.82;;;8.93;;
5054;SDS011;13829;48.990;8.346;2023-09-08T11:08:43;11.82;;;8.95;;
5054;SDS011;13829;48.990;8.346;2023-09-08T11:11:12;10.27;;;8.95;;
5054;SDS011;13829;48.990;8.346;2023-09-08T11:13:43;10.07;;;9.07;;
5054;SDS011;13829;48.990;8.346;2023-09-08T11:16:11;11.70;;;9.25;;
5054;SDS011;13829;48.990;8.346;2023-09-08T11:18:40;11.15;;;8.68;;
5054;SDS011;13829;48.990;8.346;2023-09-08T11:21:08;9.75;;;8.80;;
5054;SDS011;13829;48.990;8.346;2023-09-08T11:23:36;9.15;;;8.35;;
5054;SDS011;13829;48.990;8.346;2023-09-08T11:26:04;9.85;;;8.88;;
5054;SDS011;13829;48.990;8.346;2023-09-08T11:28:34;10.88;;;9.32;;
5054;SDS011;13829;48.990;8.346;2023-09-08T11:31:02;9.93;;;9.00;;
5054;SDS011;13829;48.990;8.346;2023-09-08T11:33:32;10.80;;;8.80;;
5054;SDS011;13829;48.990;8.346;2023-09-08T11:36:10;13.50;;;9.73;;
5054;SDS011;13829;48.990;8.346;2023-09-08T11:38:41;11.50;;;8.68;;
5054;SDS011;13829;48.990;8.346;2023-09-08T11:41:10;10.68;;;9.65;;
5054;SDS011;13829;48.990;8.346;2023-09-08T11:43:37;9.52;;;8.63;;
5054;SDS011;13829;48.990;8.346;2023-09-08T11:46:05;11.00;;;8.80;;
5054;SDS011;13829;48.990;8.346;2023-09-08T11:48:33;10.02;;;9.02;;
5054;SDS011;13829;48.990;8.346;2023-09-08T11:51:00;9.93;;;8.80;;
5054;SDS011;13829;48.990;8.346;2023-09-08T11:53:27;10.70;;;9.60;;
5054;SDS011;13829;48.990;8.346;2023-09-08T11:55:54;9.50;;;8.50;;
5054;SDS011;13829;48.990;8.346;2023-09-08T11:58:22;9.30;;;8.38;;
5054;SDS011;13829;48.990;8.346;2023-09-08T12:00:50;9.50;;;8.57;;
5054;SDS011;13829;48.990;8.346;2023-09-08T12:03:18;9.05;;;8.25;;
5054;SDS011;13829;48.990;8.346;2023-09-08T12:05:51;9.52;;;8.60;;
5054;SDS011;13829;48.990;8.346;2023-09-08T12:08:19;9.32;;;8.52;;
5054;SDS011;13829;48.990;8.346;2023-09-08T12:10:46;9.68;;;8.70;;
5054;SDS011;13829;48.990;8.346;2023-09-08T12:13:19;8.50;;;7.72;;
5054;SDS011;13829;48.990;8.346;2023-09-08T12:15:47;9.27;;;8.35;;
5054;SDS011;13829;48.990;8.346;2023-09-08T12:18:14;10.32;;;8.43;;
5054;SDS011;13829;48.990;8.346;2023-09-08T12:20:43;9.20;;;8.35;;
5054;SDS011;13829;48.990;8.346;2023-09-08T12:23:17;9.88;;;8.90;;
5054;SDS011;13829;48.990;8.346;2023-09-08T12:25:46;9.73;;;8.48;;
5054;SDS011;13829;48.990;8.346;2023-09-08T12:28:15;8.80;;;7.97;;
5054;SDS011;13829;48.990;8.346;2023-09-08T12:30:43;9.20;;;8.30;;
5054;SDS011;13829;48.990;8.346;2023-09-08T12:33:11;12.13;;;8.18;;
5054;SDS011;13829;48.990;8.346;2023-09-08T12:35:43;9.02;;;8.13;;
5054;SDS011;13829;48.990;8.346;2023-09-08T12:38:12;8.43;;;7.63;;
5054;SDS011;13829;48.990;8.346;2023-09-08T12:40:40;8.65;;;7.70;;
5054;SDS011;13829;48.990;8.346;2023-09-08T12:43:07;9.50;;;8.65;;
5054;SDS011;13829;48.990;8.346;2023-09-08T12:45:34;9.20;;;8.27;;
5054;SDS011;13829;48.990;8.346;2023-09-08T12:48:01;8.70;;;7.80;;
5054;SDS011;13829;48.990;8.346;2023-09-08T12:50:29;8.93;;;8.02;;
5054;SDS011;13829;48.990;8.346;2023-09-08T12:52:58;9.88;;;7.85;;
5054;SDS011;13829;48.990;8.346;2023-09-08T12:55:24;8.73;;;8.02;;
5054;SDS011;13829;48.990;8.346;2023-09-08T12:57:51;9.40;;;8.43;;
5054;SDS011;13829;48.990;8.346;2023-09-08T13:00:19;8.73;;;7.85;;
5054;SDS011;13829;48.990;8.346;2023-09-08T13:02:48;10.80;;;7.97;;
5054;SDS011;13829;48.990;8.346;2023-09-08T13:05:15;9.82;;;8.68;;
5054;SDS011;13829;48.990;8.346;2023-09-08T13:07:42;9.13;;;8.23;;
5054;SDS011;13829;48.990;8.346;2023-09-08T13:10:10;10.85;;;7.90;;
5054;SDS011;13829;48.990;8.346;2023-09-08T13:12:37;8.07;;;7.35;;
5054;SDS011;13829;48.990;8.346;2023-09-08T13:15:05;10.82;;;8.07;;
5054;SDS011;13829;48.990;8.346;2023-09-08T13:17:33;8.98;;;8.10;;
5054;SDS011;13829;48.990;8.346;2023-09-08T13:20:01;11.55;;;8.48;;
5054;SDS011;13829;48.990;8.346;2023-09-08T13:22:28;10.38;;;7.82;;
5054;SDS011;13829;48.990;8.346;2023-09-08T13:24:55;12.00;;;8.50;;
5054;SDS011;13829;48.990;8.346;2023-09-08T13:27:23;9.82;;;8.55;;
5054;SDS011;13829;48.990;8.346;2023-09-08T13:29:52;8.63;;;7.72;;
5054;SDS011;13829;48.990;8.346;2023-09-08T13:32:20;8.25;;;7.43;;
5054;SDS011;13829;48.990;8.346;2023-09-08T13:34:50;9.00;;;7.00;;
5054;SDS011;13829;48.990;8.346;2023-09-08T13:37:16;10.88;;;7.05;;
5054;SDS011;13829;48.990;8.346;2023-09-08T13:39:43;9.57;;;7.35;;
5054;SDS011;13829;48.990;8.346;2023-09-08T13:42:10;7.53;;;6.82;;
5054;SDS011;13829;48.990;8.346;2023-09-08T13:44:38;10.43;;;7.35;;
5054;SDS011;13829;48.990;8.346;2023-09-08T13:47:05;11.45;;;7.00;;
5054;SDS011;13829;48.990;8.346;2023-09-08T13:49:32;10.88;;;7.70;;
5054;SDS011;13829;48.990;8.346;2023-09-08T13:51:59;9.50;;;7.25;;
5054;SDS011;13829;48.990;8.346;2023-09-08T13:54:27;9.20;;;7.13;;
5054;SDS011;13829;48.990;8.346;2023-09-08T13:56:57;8.20;;;7.45;;
5054;SDS011;13829;48.990;8.346;2023-09-08T13:59:26;8.63;;;7.00;;
5054;SDS011;13829;48.990;8.346;2023-09-08T14:01:56;9.10;;;7.05;;
5054;SDS011;13829;48.990;8.346;2023-09-08T14:04:23;7.95;;;7.15;;
5054;SDS011;13829;48.990;8.346;2023-09-08T14:06:51;8.05;;;7.25;;
5054;SDS011;13829;48.990;8.346;2023-09-08T14:09:19;11.93;;;7.85;;
5054;SDS011;13829;48.990;8.346;2023-09-08T14:11:46;7.72;;;7.03;;
5054;SDS011;13829;48.990;8.346;2023-09-08T14:14:13;7.65;;;6.90;;
5054;SDS011;13829;48.990;8.346;2023-09-08T14:16:40;7.95;;;7.13;;
5054;SDS011;13829;48.990;8.346;2023-09-08T14:19:08;7.43;;;6.72;;
5054;SDS011;13829;48.990;8.346;2023-09-08T14:21:35;7.90;;;7.15;;
5054;SDS011;13829;48.990;8.346;2023-09-08T14:24:04;11.32;;;8.10;;
5054;SDS011;13829;48.990;8.346;2023-09-08T14:26:32;8.73;;;7.40;;
5054;SDS011;13829;48.990;8.346;2023-09-08T14:28:59;8.10;;;6.80;;
5054;SDS011;13829;48.990;8.346;2023-09-08T14:31:26;8.35;;;6.95;;
5054;SDS011;13829;48.990;8.346;2023-09-08T14:33:54;9.82;;;7.22;;
5054;SDS011;13829;48.990;8.346;2023-09-08T14:36:22;8.70;;;7.75;;
5054;SDS011;13829;48.990;8.346;2023-09-08T14:38:50;7.50;;;6.90;;
5054;SDS011;13829;48.990;8.346;2023-09-08T14:41:17;9.25;;;6.82;;
5054;SDS011;13829;48.990;8.346;2023-09-08T14:43:44;7.70;;;6.90;;
5054;SDS011;13829;48.990;8.346;2023-09-08T14:46:11;7.40;;;6.70;;
5054;SDS011;13829;48.990;8.346;2023-09-08T14:48:38;7.60;;;6.57;;
5054;SDS011;13829;48.990;8.346;2023-09-08T14:51:05;7.85;;;7.05;;
5054;SDS011;13829;48.990;8.346;2023-09-08T14:53:33;8.60;;;7.40;;
5054;SDS011;13829;48.990;8.346;2023-09-08T14:56:00;7.60;;;6.68;;
5054;SDS011;13829;48.990;8.346;2023-09-08T14:58:29;7.75;;;7.03;;
5054;SDS011;13829;48.990;8.346;2023-09-08T15:00:59;8.38;;;7.57;;
5054;SDS011;13829;48.990;8.346;2023-09-08T15:03:29;7.90;;;7.15;;